createdAt,value
2023-01-09T00:02:13.697Z,9.59
2023-01-09T00:06:15.351Z,9.58
2023-01-09T00:10:16.976Z,9.54
2023-01-09T00:14:19.617Z,9.43
2023-01-09T00:18:21.342Z,9.44
2023-01-09T00:22:22.993Z,9.36
2023-01-09T00:26:24.911Z,9.29
2023-01-09T00:30:27.198Z,9.29
2023-01-09T00:34:28.853Z,9.23
2023-01-09T00:38:31.685Z,9.13
2023-01-09T00:42:35.297Z,9.10
2023-01-09T00:46:40.395Z,9.09
2023-01-09T00:50:43.736Z,9.08
2023-01-09T00:54:46.427Z,9.00
2023-01-09T00:58:49.921Z,9.05
2023-01-09T01:02:51.669Z,9.03
2023-01-09T01:07:11.770Z,9.06
2023-01-09T01:11:17.152Z,9.01
2023-01-09T01:15:19.892Z,9.09
2023-01-09T01:19:21.451Z,9.10
2023-01-09T01:23:23.007Z,9.11
2023-01-09T01:27:24.602Z,9.12
2023-01-09T01:31:26.144Z,9.12
2023-01-09T01:35:27.827Z,9.13
2023-01-09T01:39:29.484Z,9.12
2023-01-09T01:43:50.938Z,9.16
2023-01-09T01:48:13.489Z,9.11
2023-01-09T01:52:17.568Z,9.09
2023-01-09T01:56:32.787Z,9.09
2023-01-09T02:00:38.550Z,9.06
2023-01-09T02:04:40.519Z,9.05
2023-01-09T02:08:42.889Z,8.99
2023-01-09T02:12:44.465Z,9.04
2023-01-09T02:17:12.248Z,9.00
2023-01-09T02:21:20.981Z,8.85
2023-01-09T02:25:25.237Z,8.88
2023-01-09T02:29:41.827Z,8.85
2023-01-09T02:34:05.210Z,8.79
2023-01-09T02:38:13.791Z,8.79
2023-01-09T02:42:18.414Z,8.77
2023-01-09T02:46:22.800Z,8.81
2023-01-09T02:50:32.310Z,8.85
2023-01-09T02:54:39.905Z,8.82
2023-01-09T02:59:00.851Z,8.77
2023-01-09T03:03:19.938Z,8.74
2023-01-09T03:07:40.049Z,8.77
2023-01-09T03:11:46.894Z,8.78
2023-01-09T03:15:51.964Z,8.81
2023-01-09T03:19:55.002Z,8.81
2023-01-09T03:23:59.592Z,8.79
2023-01-09T03:28:07.162Z,8.83
2023-01-09T03:32:08.708Z,8.84
2023-01-09T03:36:12.199Z,8.84
2023-01-09T03:40:14.118Z,8.84
2023-01-09T03:44:15.637Z,8.84
2023-01-09T03:48:17.688Z,8.81
2023-01-09T03:52:19.276Z,8.82
2023-01-09T03:56:20.840Z,8.84
2023-01-09T04:00:23.124Z,8.79
2023-01-09T04:04:24.682Z,8.78
2023-01-09T04:08:26.228Z,8.77
2023-01-09T04:12:28.540Z,8.77
2023-01-09T04:16:30.229Z,8.72
2023-01-09T04:20:32.513Z,8.65
2023-01-09T04:24:34.169Z,8.59
2023-01-09T04:28:35.724Z,8.54
2023-01-09T04:32:37.449Z,8.43
2023-01-09T04:36:39.751Z,8.33
2023-01-09T04:40:41.374Z,8.17
2023-01-09T04:44:43.023Z,7.97
2023-01-09T04:48:44.621Z,7.85
2023-01-09T04:52:46.302Z,7.79
2023-01-09T04:56:48.173Z,7.73
2023-01-09T05:00:49.954Z,7.58
2023-01-09T05:04:52.439Z,7.57
2023-01-09T05:08:54.071Z,7.46
2023-01-09T05:12:55.637Z,7.42
2023-01-09T05:16:57.198Z,7.38
2023-01-09T05:20:58.785Z,7.38
2023-01-09T05:25:00.698Z,7.37
2023-01-09T05:29:02.317Z,7.33
2023-01-09T05:33:03.981Z,7.28
2023-01-09T05:37:05.539Z,7.26
2023-01-09T05:41:07.846Z,7.30
2023-01-09T05:45:10.071Z,7.28
2023-01-09T05:49:12.392Z,7.20
2023-01-09T05:53:14.911Z,7.16
2023-01-09T05:57:17.560Z,7.01
2023-01-09T06:01:19.206Z,6.96
2023-01-09T06:05:20.802Z,6.92
2023-01-09T06:09:22.581Z,6.88
2023-01-09T06:13:24.145Z,6.80
2023-01-09T06:17:28.951Z,6.79
2023-01-09T06:21:33.195Z,6.92
2023-01-09T06:25:34.917Z,6.99
2023-01-09T06:29:36.870Z,7.12
2023-01-09T06:33:38.560Z,7.12
2023-01-09T06:37:40.371Z,7.10
2023-01-09T06:41:42.118Z,7.11
2023-01-09T06:45:44.751Z,7.01
2023-01-09T06:49:46.587Z,7.06
2023-01-09T06:53:48.433Z,7.17
2023-01-09T06:57:50.065Z,7.20
2023-01-09T07:01:52.060Z,7.22
2023-01-09T07:05:53.788Z,7.28
2023-01-09T07:09:55.658Z,7.30
2023-01-09T07:14:02.054Z,7.29
2023-01-09T07:18:04.027Z,7.36
2023-01-09T07:22:05.663Z,7.33
2023-01-09T07:26:07.474Z,7.28
2023-01-09T07:30:09.691Z,7.17
2023-01-09T07:34:11.360Z,7.20
2023-01-09T07:38:14.527Z,7.28
2023-01-09T07:42:16.251Z,7.33
2023-01-09T07:46:18.022Z,7.41
2023-01-09T07:50:20.342Z,7.49
2023-01-09T07:54:22.326Z,7.58
2023-01-09T07:58:24.153Z,7.60
2023-01-09T08:02:27.273Z,7.70
2023-01-09T08:06:29.231Z,7.83
2023-01-09T08:10:30.810Z,7.87
2023-01-09T08:14:32.518Z,8.00
2023-01-09T08:18:34.309Z,8.08
2023-01-09T08:22:35.901Z,8.11
2023-01-09T08:26:37.659Z,8.15
2023-01-09T08:30:39.257Z,8.14
2023-01-09T08:34:40.883Z,8.09
2023-01-09T08:38:42.841Z,8.04
2023-01-09T08:43:03.481Z,8.04
2023-01-09T08:47:08.209Z,8.05
2023-01-09T08:51:10.728Z,7.99
2023-01-09T08:55:12.445Z,7.97
2023-01-09T08:59:15.822Z,7.95
2023-01-09T09:03:19.843Z,8.01
2023-01-09T09:07:26.879Z,8.07
2023-01-09T09:11:32.821Z,8.09
2023-01-09T09:15:39.121Z,8.09
2023-01-09T09:19:42.760Z,8.15
2023-01-09T09:23:47.007Z,8.12
2023-01-09T09:27:52.474Z,8.28
2023-01-09T09:31:54.026Z,8.41
2023-01-09T09:35:56.818Z,8.41
2023-01-09T09:40:01.460Z,8.40
2023-01-09T09:44:53.497Z,8.39
2023-01-09T09:49:07.206Z,8.41
2023-01-09T09:53:38.576Z,8.38
2023-01-09T09:57:40.730Z,8.53
2023-01-09T10:01:57.620Z,8.74
2023-01-09T10:06:06.012Z,8.88
2023-01-09T10:10:16.531Z,8.84
2023-01-09T10:14:24.264Z,8.95
2023-01-09T10:18:54.847Z,8.88
2023-01-09T10:23:15.354Z,8.87
2023-01-09T10:27:36.356Z,8.70
2023-01-09T10:32:00.965Z,8.63
2023-01-09T10:36:26.808Z,8.46
2023-01-09T10:40:35.898Z,8.34
2023-01-09T10:44:47.318Z,8.24
2023-01-09T10:48:55.389Z,8.17
2023-01-09T10:52:57.035Z,8.14
2023-01-09T10:57:12.842Z,8.17
2023-01-09T11:01:15.801Z,8.20
2023-01-09T11:05:27.601Z,8.20
2023-01-09T11:10:08.448Z,8.23
2023-01-09T11:14:31.214Z,8.22
2023-01-09T11:18:34.525Z,8.22
2023-01-09T11:22:51.175Z,8.29
2023-01-09T11:27:14.245Z,8.34
2023-01-09T11:31:24.557Z,8.44
2023-01-09T11:35:34.640Z,8.53
2023-01-09T11:39:41.769Z,8.51
2023-01-09T11:43:46.809Z,8.41
2023-01-09T11:47:52.798Z,8.39
2023-01-09T11:52:14.045Z,8.35
2023-01-09T11:56:17.351Z,8.25
2023-01-09T12:00:29.774Z,8.30
2023-01-09T12:04:37.195Z,8.36
2023-01-09T12:08:53.929Z,8.37
2023-01-09T12:13:21.464Z,8.36
2023-01-09T12:17:53.933Z,8.42
2023-01-09T12:22:22.516Z,8.47
2023-01-09T12:26:42.352Z,8.47
2023-01-09T12:31:05.954Z,8.39
2023-01-09T12:40:10.563Z,8.32
2023-01-09T12:44:38.509Z,8.32
2023-01-09T12:48:58.917Z,8.40
2023-01-09T12:53:31.733Z,8.55
2023-01-09T12:57:37.580Z,8.70
2023-01-09T13:01:45.202Z,8.96
2023-01-09T13:05:50.335Z,8.95
2023-01-09T13:10:15.177Z,8.91
2023-01-09T13:14:33.673Z,8.78
2023-01-09T13:18:43.807Z,8.73
2023-01-09T13:22:53.755Z,8.79
2023-01-09T13:27:00.063Z,8.81
2023-01-09T13:31:12.496Z,8.78
2023-01-09T13:35:15.235Z,8.76
2023-01-09T13:40:12.250Z,8.59
2023-01-09T13:44:28.584Z,8.53
2023-01-09T13:48:40.716Z,8.51
2023-01-09T13:52:43.350Z,8.41
2023-01-09T13:57:18.904Z,8.28
2023-01-09T14:01:39.821Z,8.27
2023-01-09T14:05:41.579Z,8.12
2023-01-09T14:09:54.750Z,8.11
2023-01-09T14:14:03.091Z,8.09
2023-01-09T14:18:08.157Z,8.05
2023-01-09T14:22:38.100Z,8.11
2023-01-09T14:26:56.721Z,8.05
2023-01-09T14:30:59.080Z,8.08
2023-01-09T14:35:22.454Z,8.14
2023-01-09T14:39:24.562Z,8.19
2023-01-09T14:43:52.335Z,8.27
2023-01-09T14:48:01.708Z,8.40
2023-01-09T14:52:13.256Z,8.48
2023-01-09T14:56:28.676Z,8.38
2023-01-09T15:00:30.403Z,8.39
2023-01-09T15:04:38.768Z,8.46
2023-01-09T15:08:45.328Z,8.36
2023-01-09T15:12:49.985Z,8.30
2023-01-09T15:16:52.024Z,8.32
2023-01-09T15:21:01.036Z,8.31
2023-01-09T15:25:40.304Z,8.26
2023-01-09T15:29:42.294Z,8.16
2023-01-09T15:33:46.309Z,8.08
2023-01-09T15:37:48.389Z,8.04
2023-01-09T15:42:08.620Z,8.04
2023-01-09T15:46:12.233Z,7.99
2023-01-09T15:50:16.795Z,8.02
2023-01-09T15:54:30.715Z,7.93
2023-01-09T15:58:37.497Z,7.87
2023-01-09T16:03:03.580Z,7.82
2023-01-09T16:07:15.380Z,7.71
2023-01-09T16:11:27.159Z,7.69
2023-01-09T16:15:33.228Z,7.71
2023-01-09T16:19:41.051Z,7.74
2023-01-09T16:23:54.237Z,7.78
2023-01-09T16:28:21.177Z,7.85
2023-01-09T16:32:34.799Z,7.89
2023-01-09T16:36:38.169Z,7.90
2023-01-09T16:40:39.988Z,7.92
2023-01-09T16:44:42.246Z,7.90
2023-01-09T16:48:44.106Z,7.81
2023-01-09T16:52:47.306Z,7.80
2023-01-09T16:56:52.669Z,7.78
2023-01-09T17:00:54.443Z,7.70
2023-01-09T17:04:56.127Z,7.65
2023-01-09T17:08:59.497Z,7.56
2023-01-09T17:13:01.493Z,7.49
2023-01-09T17:17:03.238Z,7.41
2023-01-09T17:21:05.728Z,7.31
2023-01-09T17:25:28.581Z,7.30
2023-01-09T17:29:30.414Z,7.20
2023-01-09T17:33:33.706Z,7.16
2023-01-09T17:37:35.400Z,7.12
2023-01-09T17:41:36.938Z,7.12
2023-01-09T17:45:41.232Z,7.15
2023-01-09T17:49:43.007Z,7.16
2023-01-09T17:53:44.579Z,7.10
2023-01-09T17:57:48.056Z,7.02
2023-01-09T18:01:50.072Z,6.97
2023-01-09T18:05:52.753Z,6.92
2023-01-09T18:09:54.411Z,6.86
2023-01-09T18:13:56.474Z,6.77
2023-01-09T18:17:58.428Z,6.74
2023-01-09T18:22:00.271Z,6.67
2023-01-09T18:26:08.358Z,6.65
2023-01-09T18:30:12.655Z,6.60
2023-01-09T18:34:14.293Z,6.61
2023-01-09T18:38:16.542Z,6.67
2023-01-09T18:42:18.167Z,6.62
2023-01-09T18:46:24.198Z,6.60
2023-01-09T18:50:25.830Z,6.55
2023-01-09T18:54:29.029Z,6.53
2023-01-09T18:58:31.085Z,6.50
2023-01-09T19:02:32.681Z,6.46
2023-01-09T19:06:34.390Z,6.39
2023-01-09T19:10:36.019Z,6.36
2023-01-09T19:14:37.962Z,6.33
2023-01-09T19:18:41.603Z,6.33
2023-01-09T19:22:43.179Z,6.29
2023-01-09T19:26:44.992Z,6.26
2023-01-09T19:30:54.711Z,6.23
2023-01-09T19:34:56.334Z,6.18
2023-01-09T19:38:59.596Z,6.13
2023-01-09T19:43:01.189Z,6.15
2023-01-09T19:47:02.981Z,6.19
2023-01-09T19:51:06.791Z,6.29
2023-01-09T19:55:11.226Z,6.37
2023-01-09T19:59:14.462Z,6.48
2023-01-09T20:03:16.030Z,6.52
2023-01-09T20:07:17.956Z,6.52
2023-01-09T20:11:20.073Z,6.48
2023-01-09T20:15:22.883Z,6.39
2023-01-09T20:19:24.472Z,6.30
2023-01-09T20:23:27.609Z,6.23
2023-01-09T20:27:29.207Z,6.24
2023-01-09T20:31:31.880Z,6.27
2023-01-09T20:35:33.450Z,6.27
2023-01-09T20:39:35.100Z,6.29
2023-01-09T20:43:37.764Z,6.30
2023-01-09T20:47:41.227Z,6.28
2023-01-09T20:51:46.143Z,6.30
2023-01-09T20:55:47.932Z,6.30
2023-01-09T20:59:50.919Z,6.22
2023-01-09T21:03:54.372Z,6.16
2023-01-09T21:07:56.079Z,6.08
2023-01-09T21:11:57.718Z,6.12
2023-01-09T21:16:02.808Z,6.14
2023-01-09T21:20:10.537Z,6.23
2023-01-09T21:24:12.227Z,6.29
2023-01-09T21:28:16.153Z,6.36
2023-01-09T21:32:17.719Z,6.38
2023-01-09T21:36:19.215Z,6.43
2023-01-09T21:40:20.945Z,6.46
2023-01-09T21:44:41.276Z,6.54
2023-01-09T21:48:42.855Z,6.60
2023-01-09T21:52:44.551Z,6.64
2023-01-09T21:56:46.389Z,6.70
2023-01-09T22:00:47.999Z,6.74
2023-01-09T22:04:49.697Z,6.73
2023-01-09T22:08:51.282Z,6.74
2023-01-09T22:13:11.559Z,6.74
2023-01-09T22:17:13.101Z,6.78
2023-01-09T22:21:14.656Z,6.84
2023-01-09T22:25:16.264Z,6.87
2023-01-09T22:29:18.010Z,6.89
2023-01-09T22:33:19.589Z,6.85
2023-01-09T22:37:21.239Z,6.85
2023-01-09T22:41:24.549Z,6.87
2023-01-09T22:45:26.129Z,6.79
2023-01-09T22:49:30.169Z,6.70
2023-01-09T22:53:35.079Z,6.61
2023-01-09T22:57:36.710Z,6.59
2023-01-09T23:01:38.428Z,6.55
2023-01-09T23:05:40.105Z,6.46
2023-01-09T23:09:42.842Z,6.42
2023-01-09T23:13:44.484Z,6.49
2023-01-09T23:17:46.028Z,6.56
2023-01-09T23:21:47.759Z,6.64
2023-01-09T23:25:51.202Z,6.71
2023-01-09T23:29:53.312Z,6.79
2023-01-09T23:33:54.924Z,6.88
2023-01-09T23:37:56.479Z,6.87
2023-01-09T23:42:16.735Z,6.89
2023-01-09T23:46:18.355Z,6.91
2023-01-09T23:50:19.933Z,6.97
2023-01-09T23:54:21.535Z,7.01
2023-01-09T23:58:23.171Z,7.03
